createdAt,value
2022-10-28T00:01:33.227Z,11.62
2022-10-28T00:04:35.421Z,11.77
2022-10-28T00:07:37.533Z,11.73
2022-10-28T00:10:39.692Z,11.77
2022-10-28T00:13:43.792Z,11.59
2022-10-28T00:16:45.902Z,11.41
2022-10-28T00:19:48.066Z,11.37
2022-10-28T00:22:50.244Z,11.34
2022-10-28T00:25:52.422Z,11.39
2022-10-28T00:28:57.043Z,11.36
2022-10-28T00:31:59.188Z,11.27
2022-10-28T00:35:01.263Z,11.25
2022-10-28T00:38:03.433Z,11.20
2022-10-28T00:41:05.832Z,11.24
2022-10-28T00:44:45.654Z,11.30
2022-10-28T00:47:52.630Z,11.33
2022-10-28T00:50:55.438Z,11.30
2022-10-28T00:53:57.594Z,11.19
2022-10-28T00:57:02.479Z,11.28
2022-10-28T01:00:06.531Z,11.25
2022-10-28T01:03:09.790Z,11.18
2022-10-28T01:06:12.060Z,11.22
2022-10-28T01:09:14.601Z,11.15
2022-10-28T01:12:46.099Z,11.04
2022-10-28T01:16:02.656Z,11.08
2022-10-28T01:19:13.580Z,11.15
2022-10-28T01:22:56.660Z,11.22
2022-10-28T01:26:31.101Z,11.35
2022-10-28T01:29:57.277Z,11.44
2022-10-28T01:33:16.587Z,11.56
2022-10-28T01:36:27.988Z,11.58
2022-10-28T01:39:49.791Z,11.51
2022-10-28T01:42:56.163Z,11.65
2022-10-28T01:45:59.790Z,11.73
2022-10-28T01:49:19.096Z,11.64
2022-10-28T01:52:24.595Z,11.61
2022-10-28T01:55:29.249Z,11.54
2022-10-28T01:58:32.215Z,11.47
2022-10-28T02:01:34.778Z,11.48
2022-10-28T02:04:37.018Z,11.58
2022-10-28T02:07:39.270Z,11.60
2022-10-28T02:10:46.632Z,11.65
2022-10-28T02:14:00.996Z,11.48
2022-10-28T02:17:32.849Z,11.39
2022-10-28T02:20:44.069Z,11.30
2022-10-28T02:23:49.401Z,11.44
2022-10-28T02:27:15.928Z,11.34
2022-10-28T02:30:28.858Z,11.61
2022-10-28T02:33:34.948Z,11.45
2022-10-28T02:36:40.595Z,11.34
2022-10-28T02:39:45.452Z,11.43
2022-10-28T02:42:53.270Z,11.48
2022-10-28T02:45:57.829Z,11.33
2022-10-28T02:49:03.894Z,11.39
2022-10-28T02:52:06.729Z,11.46
2022-10-28T02:55:09.068Z,11.26
2022-10-28T02:58:11.522Z,11.23
2022-10-28T03:01:13.963Z,11.20
2022-10-28T03:04:16.234Z,11.36
2022-10-28T03:07:18.409Z,11.38
2022-10-28T03:10:20.528Z,11.53
2022-10-28T03:13:22.691Z,11.76
2022-10-28T03:16:26.712Z,11.47
2022-10-28T03:19:28.875Z,11.35
2022-10-28T03:22:31.058Z,11.10
2022-10-28T03:25:33.193Z,11.28
2022-10-28T03:28:35.425Z,11.18
2022-10-28T03:31:37.593Z,11.17
2022-10-28T03:34:40.053Z,11.30
2022-10-28T03:37:43.732Z,11.34
2022-10-28T03:40:48.904Z,11.18
2022-10-28T03:43:51.718Z,11.06
2022-10-28T03:46:53.821Z,11.05
2022-10-28T03:49:55.956Z,10.99
2022-10-28T03:52:58.116Z,11.06
2022-10-28T03:56:01.593Z,11.23
2022-10-28T03:59:03.757Z,11.26
2022-10-28T04:02:06.018Z,11.17
2022-10-28T04:05:08.613Z,11.00
2022-10-28T04:08:10.938Z,11.20
2022-10-28T04:11:13.116Z,11.02
2022-10-28T04:14:15.462Z,10.83
2022-10-28T04:17:17.625Z,10.73
2022-10-28T04:20:19.860Z,10.68
2022-10-28T04:23:22.050Z,10.72
2022-10-28T04:26:24.188Z,10.63
2022-10-28T04:29:26.385Z,10.63
2022-10-28T04:32:28.600Z,10.66
2022-10-28T04:35:30.753Z,10.70
2022-10-28T04:38:32.914Z,11.06
2022-10-28T04:41:35.154Z,10.97
2022-10-28T04:44:37.325Z,11.04
2022-10-28T04:47:39.490Z,10.99
2022-10-28T04:50:41.707Z,10.87
2022-10-28T04:53:43.891Z,10.98
2022-10-28T04:56:45.996Z,10.93
2022-10-28T04:59:48.132Z,10.99
2022-10-28T05:02:50.575Z,10.98
2022-10-28T05:05:52.764Z,10.96
2022-10-28T05:08:54.970Z,11.06
2022-10-28T05:11:57.171Z,11.12
2022-10-28T05:14:59.342Z,11.05
2022-10-28T05:18:01.567Z,11.08
2022-10-28T05:21:03.929Z,10.90
2022-10-28T05:24:06.468Z,10.95
2022-10-28T05:27:08.646Z,10.96
2022-10-28T05:30:11.540Z,10.98
2022-10-28T05:33:13.678Z,10.88
2022-10-28T05:36:15.996Z,10.88
2022-10-28T05:39:18.367Z,10.77
2022-10-28T05:42:20.652Z,10.76
2022-10-28T05:45:22.841Z,10.91
2022-10-28T05:48:25.063Z,11.26
2022-10-28T05:51:27.184Z,11.12
2022-10-28T05:54:29.428Z,11.11
2022-10-28T05:57:35.273Z,11.14
2022-10-28T06:00:37.440Z,11.18
2022-10-28T06:03:39.599Z,11.20
2022-10-28T06:06:41.819Z,11.12
2022-10-28T06:09:43.936Z,11.03
2022-10-28T06:12:44.538Z,11.01
2022-10-28T06:15:53.742Z,10.93
2022-10-28T06:18:56.003Z,11.09
2022-10-28T06:21:58.169Z,11.15
2022-10-28T06:25:00.340Z,11.20
2022-10-28T06:28:05.772Z,11.11
2022-10-28T06:31:11.704Z,11.08
2022-10-28T06:34:13.839Z,11.20
2022-10-28T06:37:16.073Z,11.26
2022-10-28T06:40:18.228Z,11.12
2022-10-28T06:43:20.415Z,11.31
2022-10-28T06:46:22.628Z,11.22
2022-10-28T06:49:26.692Z,11.23
2022-10-28T06:52:28.894Z,11.27
2022-10-28T06:55:31.080Z,11.31
2022-10-28T06:58:33.263Z,11.34
2022-10-28T07:01:35.465Z,11.41
2022-10-28T07:04:37.992Z,11.37
2022-10-28T07:07:40.201Z,11.34
2022-10-28T07:10:42.656Z,11.25
2022-10-28T07:13:46.670Z,11.37
2022-10-28T07:16:51.067Z,11.38
2022-10-28T07:19:53.287Z,11.51
2022-10-28T07:22:56.997Z,11.70
2022-10-28T07:25:59.203Z,11.69
2022-10-28T07:29:01.438Z,11.71
2022-10-28T07:32:03.713Z,11.81
2022-10-28T07:35:06.118Z,11.91
2022-10-28T07:38:08.704Z,11.95
2022-10-28T07:41:10.934Z,11.88
2022-10-28T07:44:13.786Z,11.81
2022-10-28T07:47:17.647Z,11.73
2022-10-28T07:50:20.069Z,11.85
2022-10-28T07:53:24.837Z,11.83
2022-10-28T07:56:29.958Z,11.77
2022-10-28T07:59:32.153Z,11.72
2022-10-28T08:02:34.347Z,11.91
2022-10-28T08:05:36.531Z,11.95
2022-10-28T08:08:39.159Z,12.00
2022-10-28T08:11:41.326Z,12.05
2022-10-28T08:14:43.548Z,11.92
2022-10-28T08:17:51.461Z,11.81
2022-10-28T08:20:53.911Z,12.04
2022-10-28T08:23:56.082Z,12.12
2022-10-28T08:26:58.238Z,12.13
2022-10-28T08:30:00.432Z,12.16
2022-10-28T08:33:02.656Z,12.16
2022-10-28T08:36:05.559Z,12.27
2022-10-28T08:39:07.866Z,12.10
2022-10-28T08:42:47.770Z,12.03
2022-10-28T08:46:15.107Z,11.97
2022-10-28T08:49:20.920Z,12.03
2022-10-28T08:52:41.733Z,12.13
2022-10-28T08:55:46.245Z,11.98
2022-10-28T08:58:49.828Z,12.12
2022-10-28T09:02:00.142Z,12.24
2022-10-28T09:05:21.502Z,12.30
2022-10-28T09:08:28.729Z,12.36
2022-10-28T09:11:57.235Z,12.30
2022-10-28T09:15:35.301Z,12.18
2022-10-28T09:18:51.665Z,12.30
2022-10-28T09:22:06.985Z,12.44
2022-10-28T09:25:48.697Z,12.53
2022-10-28T09:29:13.676Z,12.30
2022-10-28T09:32:34.579Z,12.24
2022-10-28T09:35:42.856Z,12.30
2022-10-28T09:38:45.813Z,12.37
2022-10-28T09:41:49.275Z,12.55
2022-10-28T09:44:58.164Z,12.65
2022-10-28T09:48:11.215Z,12.73
2022-10-28T09:51:27.289Z,12.62
2022-10-28T09:54:34.468Z,12.57
2022-10-28T09:57:36.616Z,12.64
2022-10-28T10:00:38.943Z,12.79
2022-10-28T10:03:41.863Z,12.77
2022-10-28T10:06:45.105Z,12.86
2022-10-28T10:09:47.364Z,12.73
2022-10-28T10:12:52.469Z,12.78
2022-10-28T10:16:02.254Z,12.78
2022-10-28T10:19:05.503Z,12.67
2022-10-28T10:22:07.659Z,12.74
2022-10-28T10:25:18.986Z,12.72
2022-10-28T10:28:20.995Z,12.64
2022-10-28T10:31:27.401Z,12.70
2022-10-28T10:34:30.679Z,12.70
2022-10-28T10:37:36.522Z,12.82
2022-10-28T10:40:49.337Z,12.80
2022-10-28T10:43:51.572Z,12.93
2022-10-28T10:47:04.905Z,12.92
2022-10-28T10:50:29.732Z,12.97
2022-10-28T10:53:32.902Z,12.90
2022-10-28T10:56:35.025Z,12.98
2022-10-28T10:59:37.899Z,12.87
2022-10-28T11:02:40.281Z,12.89
2022-10-28T11:05:55.215Z,12.99
2022-10-28T11:09:18.844Z,13.13
2022-10-28T11:12:35.644Z,13.10
2022-10-28T11:15:37.857Z,13.03
2022-10-28T11:18:42.934Z,13.04
2022-10-28T11:21:45.129Z,13.08
2022-10-28T11:25:14.760Z,12.98
2022-10-28T11:28:47.093Z,13.00
2022-10-28T11:31:49.206Z,13.00
2022-10-28T11:35:08.208Z,12.97
2022-10-28T11:38:19.384Z,13.05
2022-10-28T11:41:21.576Z,13.03
2022-10-28T11:44:58.935Z,13.08
2022-10-28T11:48:27.373Z,12.94
2022-10-28T11:52:03.070Z,12.78
2022-10-28T11:55:18.724Z,12.67
2022-10-28T11:58:35.935Z,12.87
2022-10-28T12:02:02.887Z,12.99
2022-10-28T12:05:28.046Z,12.86
2022-10-28T12:08:48.591Z,12.94
2022-10-28T12:12:02.770Z,13.03
2022-10-28T12:15:16.543Z,13.12
2022-10-28T12:18:54.388Z,12.98
2022-10-28T12:22:05.838Z,13.00
2022-10-28T12:25:14.725Z,12.99
2022-10-28T12:28:21.369Z,13.00
2022-10-28T12:31:30.011Z,12.93
2022-10-28T12:34:40.002Z,12.83
2022-10-28T12:37:48.692Z,12.76
2022-10-28T12:41:06.711Z,12.77
2022-10-28T12:44:16.438Z,12.82
2022-10-28T12:47:23.509Z,13.02
2022-10-28T12:50:42.981Z,12.95
2022-10-28T12:53:51.829Z,12.81
2022-10-28T12:56:59.831Z,12.76
2022-10-28T13:00:14.393Z,12.74
2022-10-28T13:03:17.058Z,12.76
2022-10-28T13:06:32.197Z,12.81
2022-10-28T13:09:39.247Z,12.81
2022-10-28T13:13:13.433Z,12.82
2022-10-28T13:16:45.577Z,12.71
2022-10-28T13:20:12.628Z,12.78
2022-10-28T13:23:42.462Z,12.78
2022-10-28T13:26:45.263Z,12.69
2022-10-28T13:29:51.858Z,12.78
2022-10-28T13:33:08.901Z,12.77
2022-10-28T13:36:26.553Z,12.75
2022-10-28T13:39:28.651Z,12.62
2022-10-28T13:42:32.305Z,12.68
2022-10-28T13:45:54.667Z,12.60
2022-10-28T13:49:26.338Z,12.62
2022-10-28T13:52:28.557Z,12.56
2022-10-28T13:55:40.572Z,12.70
2022-10-28T13:59:16.272Z,12.66
2022-10-28T14:02:37.336Z,12.53
2022-10-28T14:05:39.580Z,12.65
2022-10-28T14:08:41.863Z,12.51
2022-10-28T14:11:44.097Z,12.46
2022-10-28T14:15:06.228Z,12.66
2022-10-28T14:18:42.974Z,12.57
2022-10-28T14:22:01.965Z,12.54
2022-10-28T14:25:45.257Z,12.50
2022-10-28T14:28:52.115Z,12.65
2022-10-28T14:31:54.364Z,12.59
2022-10-28T14:35:03.905Z,12.47
2022-10-28T14:38:31.142Z,12.46
2022-10-28T14:42:08.165Z,12.43
2022-10-28T14:45:47.909Z,12.46
2022-10-28T14:48:55.656Z,12.37
2022-10-28T14:52:05.464Z,12.26
2022-10-28T14:55:08.615Z,12.28
2022-10-28T14:58:23.774Z,12.31
2022-10-28T15:01:40.327Z,12.29
2022-10-28T15:04:45.406Z,12.25
2022-10-28T15:07:48.226Z,12.19
2022-10-28T15:10:50.597Z,12.19
2022-10-28T15:13:53.426Z,12.17
2022-10-28T15:16:56.201Z,12.20
2022-10-28T15:20:00.188Z,12.08
2022-10-28T15:23:29.516Z,12.14
2022-10-28T15:26:31.786Z,12.08
2022-10-28T15:29:34.069Z,11.97
2022-10-28T15:32:36.372Z,12.14
2022-10-28T15:35:38.853Z,12.15
2022-10-28T15:38:42.554Z,12.10
2022-10-28T15:41:49.169Z,12.05
2022-10-28T15:44:54.859Z,12.00
2022-10-28T15:47:58.839Z,12.01
2022-10-28T15:51:15.152Z,12.02
2022-10-28T15:54:20.535Z,12.08
2022-10-28T15:57:30.497Z,12.06
2022-10-28T16:00:36.854Z,12.01
2022-10-28T16:03:45.168Z,11.94
2022-10-28T16:06:47.644Z,11.94
2022-10-28T16:09:50.681Z,11.87
2022-10-28T16:12:52.836Z,11.85
2022-10-28T16:15:58.722Z,11.82
2022-10-28T16:19:09.562Z,11.76
2022-10-28T16:22:13.535Z,11.86
2022-10-28T16:25:18.151Z,11.94
2022-10-28T16:28:25.592Z,11.93
2022-10-28T16:31:29.448Z,11.81
2022-10-28T16:34:31.646Z,11.81
2022-10-28T16:37:34.507Z,11.73
2022-10-28T16:40:50.979Z,11.69
2022-10-28T16:43:55.921Z,11.81
2022-10-28T16:46:58.215Z,11.77
2022-10-28T16:50:00.391Z,11.75
2022-10-28T16:53:02.637Z,11.76
2022-10-28T16:56:08.643Z,11.78
2022-10-28T16:59:15.772Z,11.87
2022-10-28T17:02:29.844Z,11.83
2022-10-28T17:05:32.438Z,11.77
2022-10-28T17:09:01.187Z,11.72
2022-10-28T17:11:56.921Z,11.80
2022-10-28T17:14:59.093Z,11.89
2022-10-28T17:18:04.154Z,11.79
2022-10-28T17:21:06.483Z,11.79
2022-10-28T17:24:08.979Z,11.90
2022-10-28T17:27:13.453Z,11.82
2022-10-28T17:30:17.501Z,11.80
2022-10-28T17:33:19.867Z,11.76
2022-10-28T17:36:23.241Z,11.82
2022-10-28T17:39:26.612Z,11.68
2022-10-28T17:42:29.009Z,11.71
2022-10-28T17:45:31.194Z,11.65
2022-10-28T17:48:34.200Z,11.73
2022-10-28T17:51:36.881Z,11.65
2022-10-28T17:54:39.216Z,11.69
2022-10-28T17:57:41.650Z,11.62
2022-10-28T18:00:45.595Z,11.63
2022-10-28T18:03:50.773Z,11.63
2022-10-28T18:06:55.098Z,11.68
2022-10-28T18:09:57.502Z,11.68
2022-10-28T18:12:59.885Z,11.72
2022-10-28T18:16:10.362Z,11.68
2022-10-28T18:19:13.826Z,11.72
2022-10-28T18:22:16.450Z,11.76
2022-10-28T18:25:18.848Z,11.66
2022-10-28T18:28:23.508Z,11.66
2022-10-28T18:31:27.578Z,11.67
2022-10-28T18:34:30.289Z,11.65
2022-10-28T18:37:32.512Z,11.75
2022-10-28T18:40:34.899Z,11.69
2022-10-28T18:43:37.473Z,11.75
2022-10-28T18:46:40.403Z,11.74
2022-10-28T18:49:45.628Z,11.75
2022-10-28T18:52:52.046Z,11.85
2022-10-28T18:56:00.078Z,11.82
2022-10-28T18:59:04.244Z,11.74
2022-10-28T19:02:06.733Z,11.71
2022-10-28T19:05:09.311Z,11.73
2022-10-28T19:08:11.745Z,11.79
2022-10-28T19:11:13.971Z,11.80
2022-10-28T19:14:16.470Z,11.76
2022-10-28T19:17:18.995Z,11.70
2022-10-28T19:20:21.288Z,11.74
2022-10-28T19:23:23.669Z,11.69
2022-10-28T19:26:25.981Z,11.70
2022-10-28T19:29:28.296Z,11.81
2022-10-28T19:32:30.690Z,11.87
2022-10-28T19:35:34.265Z,11.87
2022-10-28T19:38:37.855Z,11.81
2022-10-28T19:41:40.285Z,11.86
2022-10-28T19:44:42.692Z,11.79
2022-10-28T19:47:44.840Z,11.76
2022-10-28T19:50:50.230Z,11.76
2022-10-28T19:54:00.016Z,11.84
2022-10-28T19:57:02.380Z,11.79
2022-10-28T20:00:05.548Z,11.94
2022-10-28T20:03:07.851Z,11.90
2022-10-28T20:06:14.769Z,11.86
2022-10-28T20:09:16.938Z,11.96
2022-10-28T20:12:19.135Z,11.87
2022-10-28T20:15:21.258Z,11.84
2022-10-28T20:18:23.864Z,11.89
2022-10-28T20:21:30.547Z,11.92
2022-10-28T20:24:32.705Z,11.85
2022-10-28T20:27:35.119Z,11.86
2022-10-28T20:30:37.285Z,11.90
2022-10-28T20:33:41.837Z,11.80
2022-10-28T20:36:44.281Z,11.84
2022-10-28T20:39:47.794Z,11.88
2022-10-28T20:42:50.100Z,11.99
2022-10-28T20:46:00.186Z,11.92
2022-10-28T20:49:02.701Z,11.90
2022-10-28T20:52:04.949Z,11.92
2022-10-28T20:55:08.081Z,11.89
2022-10-28T20:58:10.363Z,11.91
2022-10-28T21:01:18.599Z,11.90
2022-10-28T21:04:20.949Z,11.82
2022-10-28T21:07:23.110Z,11.74
2022-10-28T21:10:25.298Z,11.87
2022-10-28T21:13:27.489Z,11.88
2022-10-28T21:16:30.233Z,11.88
2022-10-28T21:19:32.574Z,11.84
2022-10-28T21:22:35.146Z,11.79
2022-10-28T21:25:37.270Z,11.75
2022-10-28T21:28:43.099Z,11.76
2022-10-28T21:31:45.236Z,11.77
2022-10-28T21:34:47.361Z,11.75
2022-10-28T21:37:49.917Z,11.83
2022-10-28T21:41:04.449Z,11.92
2022-10-28T21:44:06.675Z,11.86
2022-10-28T21:47:08.897Z,11.84
2022-10-28T21:50:11.191Z,11.80
2022-10-28T21:53:13.349Z,11.78
2022-10-28T21:56:18.868Z,11.80
2022-10-28T21:59:21.360Z,11.79
2022-10-28T22:02:23.593Z,11.91
2022-10-28T22:05:25.763Z,11.90
2022-10-28T22:08:28.217Z,11.95
2022-10-28T22:11:30.346Z,11.90
2022-10-28T22:14:32.675Z,11.98
2022-10-28T22:17:34.851Z,11.88
2022-10-28T22:20:37.005Z,11.90
2022-10-28T22:23:39.520Z,11.87
2022-10-28T22:26:41.698Z,11.92
2022-10-28T22:29:43.864Z,11.91
2022-10-28T22:32:46.005Z,11.88
2022-10-28T22:35:56.412Z,11.90
2022-10-28T22:38:58.596Z,11.87
2022-10-28T22:42:00.863Z,11.88
2022-10-28T22:45:03.079Z,11.87
2022-10-28T22:48:05.493Z,11.91
2022-10-28T22:51:09.644Z,11.84
2022-10-28T22:54:11.850Z,11.85
2022-10-28T22:57:14.004Z,11.86
2022-10-28T23:00:16.506Z,11.81
2022-10-28T23:03:19.103Z,11.81
2022-10-28T23:06:23.407Z,11.82
2022-10-28T23:09:25.596Z,11.97
2022-10-28T23:12:27.741Z,12.00
2022-10-28T23:15:30.097Z,11.95
2022-10-28T23:18:32.481Z,11.93
2022-10-28T23:21:34.886Z,12.01
2022-10-28T23:24:37.049Z,11.96
2022-10-28T23:27:40.222Z,11.97
2022-10-28T23:30:42.365Z,11.95
2022-10-28T23:33:44.505Z,11.90
2022-10-28T23:36:46.628Z,11.87
2022-10-28T23:39:48.750Z,12.04
2022-10-28T23:42:50.903Z,11.91
2022-10-28T23:45:53.097Z,11.92
2022-10-28T23:48:55.364Z,11.91
2022-10-28T23:51:57.506Z,11.89
2022-10-28T23:54:59.641Z,11.85
2022-10-28T23:58:01.864Z,11.93
